Merlot Commodore — WDD7653 — position and weather

sailwx.info

Track history (hours):
 
Tides and Currents Weather Stations Pressure Air Temp Water Temp Dewpoint Dewpoint Depression Visibility Wind Speed Wind Dir Waves Ship Positions

Merlot Commodore

Owner: Proescher, Ward H, Alameda, CA. More information available from US FCC via Universal Licensing System and Coast Guard Vessel Documentation Center.

Last reported at 2018-Jun-25 03:48 UTC. Time now 2018-Jun-25 06:07 UTC.
Position N 37°47' W 122°17'.

Length 24 m; draft 1.8 m.

Type: Passenger vessel. MMSI: 367189370.

Date/timePositionNaut miles runAvg speedWind from/ knotsBaromVisibWave heightAir tempDewpointWater temp
2018-Jun-25 03:48N 37°47' W 122°17'2 5.7
2018-Jun-25 03:30N 37°48' W 122°19'5 9.2
2018-Jun-25 03:00N 37°49' W 122°24'3 6.2
2018-Jun-25 02:30N 37°49' W 122°28'2 4.9
2018-Jun-25 02:00N 37°49' W 122°25'3 5.1
2018-Jun-25 01:30N 37°48' W 122°22'3 6.9
2018-Jun-25 01:00N 37°48' W 122°18'1 1.8
2018-Jun-25 00:29N 37°47' W 122°17'0 0.0
2018-Jun-24 23:59N 37°47' W 122°17'0 0.0
2018-Jun-24 23:30N 37°47' W 122°17'0 0.0
2018-Jun-24 16:26N 37°47' W 122°17'0 0.0
2018-Jun-24 16:00N 37°47' W 122°17'0 0.0
2018-Jun-24 15:30N 37°47' W 122°17'0 0.0
2018-Jun-24 05:10N 37°47' W 122°17'0 0.0
2018-Jun-24 05:00N 37°47' W 122°17'2 3.2
2018-Jun-24 04:30N 37°48' W 122°19'4 8.8
2018-Jun-24 04:00N 37°49' W 122°24'4 7.1
2018-Jun-24 03:30N 37°49' W 122°28'3 6.1
2018-Jun-24 03:00N 37°49' W 122°25'2 4.8
2018-Jun-24 02:30N 37°47' W 122°23'2 3.4
2018-Jun-24 02:00N 37°47' W 122°21'3 6.5
2018-Jun-24 01:30N 37°48' W 122°17'0 0.7
2018-Jun-24 01:00N 37°47' W 122°17'0 0.0
2018-Jun-24 00:30N 37°47' W 122°17'0 0.0
2018-Jun-23 17:57N 37°47' W 122°17'0 0.0
2018-Jun-23 05:48N 37°47' W 122°17'0 1.2
2018-Jun-23 05:31N 37°48' W 122°17'3 5.9
2018-Jun-23 05:00N 37°48' W 122°21'3 5.8
2018-Jun-23 04:30N 37°49' W 122°24'3 6.9
2018-Jun-23 04:00N 37°49' W 122°28'3 6.6
2018-Jun-23 03:30N 37°49' W 122°24'4 7.3
2018-Jun-23 03:00N 37°48' W 122°20'3 5.2
2018-Jun-23 02:30N 37°47' W 122°17'0 0.0
2018-Jun-23 02:00N 37°47' W 122°17'0 0.0
2018-Jun-23 01:30N 37°47' W 122°17'0 0.0
2018-Jun-22 17:35N 37°47' W 122°17'0 0.0
2018-Jun-22 17:30N 37°47' W 122°17'0 0.0
2018-Jun-22 17:00N 37°47' W 122°17'0 0.0
2018-Jun-22 16:30N 37°47' W 122°17'0 0.0
2018-Jun-22 16:00N 37°47' W 122°17'0 0.0
2018-Jun-22 15:30N 37°47' W 122°17'0 0.0
2018-Jun-21 22:57N 37°47' W 122°17'0 0.1
2018-Jun-21 22:30N 37°48' W 122°17'4 8.3
2018-Jun-21 22:00N 37°47' W 122°22'1 2.3
2018-Jun-21 21:30N 37°47' W 122°23'2 5.1
2018-Jun-21 21:00N 37°49' W 122°21'3 6.4
2018-Jun-21 20:30N 37°50' W 122°25'1 2.3
2018-Jun-21 20:00N 37°49' W 122°25'2 3.2
2018-Jun-21 19:30N 37°48' W 122°23'1 1.9
2018-Jun-21 19:00N 37°47' W 122°23'1 2.1
2018-Jun-21 18:30N 37°47' W 122°22'4 8.4
2018-Jun-21 18:00N 37°48' W 122°17'0 0.1
2018-Jun-21 17:30N 37°47' W 122°17'0 0.0
2018-Jun-21 16:54N 37°47' W 122°17'0 0.0
2018-Jun-21 16:31N 37°47' W 122°17'0 0.0
2018-Jun-21 16:01N 37°47' W 122°17'  
2018-Jun-17 05:57N 37°47' W 122°17'3 6.3
2018-Jun-17 05:31N 37°48' W 122°20'3 5.1
2018-Jun-17 04:59N 37°47' W 122°23'1 1.7
2018-Jun-17 04:30N 37°48' W 122°23'2 3.7
2018-Jun-17 04:00N 37°49' W 122°21'2 4.8
2018-Jun-17 03:30N 37°47' W 122°23'1 2.7
2018-Jun-17 03:00N 37°48' W 122°23'1 2.5
2018-Jun-17 02:30N 37°49' W 122°25'3 5.1
2018-Jun-17 02:00N 37°47' W 122°23'0 0.4
2018-Jun-17 01:30N 37°47' W 122°23'0 0.0
2018-Jun-17 01:00N 37°47' W 122°23'0 0.0
2018-Jun-17 00:30N 37°47' W 122°23'3 6.9
2018-Jun-17 00:00N 37°48' W 122°19'2 3.6
2018-Jun-16 23:30N 37°47' W 122°17'0 0.0
2018-Jun-16 17:34N 37°47' W 122°17'0 0.0
2018-Jun-16 17:30N 37°47' W 122°17'0 0.0
2018-Jun-16 17:00N 37°47' W 122°17'0 0.0
2018-Jun-16 07:02N 37°47' W 122°17'0 0.0
2018-Jun-16 07:00N 37°47' W 122°17'0 0.9
2018-Jun-16 06:31N 37°48' W 122°17'3 5.9
2018-Jun-16 06:00N 37°48' W 122°21'3 5.7
2018-Jun-16 05:30N 37°49' W 122°24'3 6.3
2018-Jun-16 05:00N 37°49' W 122°28'2 4.3
2018-Jun-16 04:30N 37°49' W 122°25'3 6.2
2018-Jun-16 04:00N 37°48' W 122°22'4 7.1
2018-Jun-16 03:30N 37°48' W 122°18'1 1.4
2018-Jun-16 03:00N 37°47' W 122°17'0 0.0
2018-Jun-16 02:30N 37°47' W 122°17'0 0.0
2018-Jun-16 00:02N 37°47' W 122°17'0 0.2
2018-Jun-16 00:00N 37°47' W 122°17'0 0.4
2018-Jun-15 23:29N 37°48' W 122°17'2 4.3
2018-Jun-15 23:00N 37°47' W 122°15'1 1.5
2018-Jun-15 22:30N 37°47' W 122°15'1 1.6
2018-Jun-15 22:00N 37°47' W 122°16'2 4.9
2018-Jun-15 21:30N 37°48' W 122°19'2 3.7
2018-Jun-15 21:01N 37°48' W 122°17'0 0.5
2018-Jun-15 20:30N 37°48' W 122°17'0 0.1
2018-Jun-15 18:26N 37°47' W 122°17'0 0.0
2018-Jun-15 18:00N 37°47' W 122°17'0 0.0
2018-Jun-15 17:30N 37°47' W 122°17'0 0.0
2018-Jun-15 05:49N 37°47' W 122°17'0 1.4
2018-Jun-15 05:31N 37°47' W 122°16'3 5.7
2018-Jun-15 05:00N 37°48' W 122°20'3 6.6
2018-Jun-15 04:31N 37°49' W 122°24'1 1.3
2018-Jun-15 04:01N 37°49' W 122°24'  
Track history (hours):
 
Tides and Currents Weather Stations Pressure Air Temp Water Temp Dewpoint Dewpoint Depression Visibility Wind Speed Wind Dir Waves Ship Positions

Merlot Commodore

Owner: Proescher, Ward H, Alameda, CA. More information available from US FCC via Universal Licensing System and Coast Guard Vessel Documentation Center.

Last reported at 2018-Jun-25 03:48 UTC. Time now 2018-Jun-25 06:07 UTC.
Position N 37°47' W 122°17'.

Length 24 m; draft 1.8 m.

Type: Passenger vessel. MMSI: 367189370.

Date/timePositionNaut miles runAvg speedWind from/ knotsBaromVisibWave heightAir tempDewpointWater temp
2018-Jun-25 03:48N 37°47' W 122°17'2 5.7
2018-Jun-25 03:30N 37°48' W 122°19'5 9.2
2018-Jun-25 03:00N 37°49' W 122°24'3 6.2
2018-Jun-25 02:30N 37°49' W 122°28'2 4.9
2018-Jun-25 02:00N 37°49' W 122°25'3 5.1
2018-Jun-25 01:30N 37°48' W 122°22'3 6.9
2018-Jun-25 01:00N 37°48' W 122°18'1 1.8
2018-Jun-25 00:29N 37°47' W 122°17'0 0.0
2018-Jun-24 23:59N 37°47' W 122°17'0 0.0
2018-Jun-24 23:30N 37°47' W 122°17'0 0.0
2018-Jun-24 16:26N 37°47' W 122°17'0 0.0
2018-Jun-24 16:00N 37°47' W 122°17'0 0.0
2018-Jun-24 15:30N 37°47' W 122°17'0 0.0
2018-Jun-24 05:10N 37°47' W 122°17'0 0.0
2018-Jun-24 05:00N 37°47' W 122°17'2 3.2
2018-Jun-24 04:30N 37°48' W 122°19'4 8.8
2018-Jun-24 04:00N 37°49' W 122°24'4 7.1
2018-Jun-24 03:30N 37°49' W 122°28'3 6.1
2018-Jun-24 03:00N 37°49' W 122°25'2 4.8
2018-Jun-24 02:30N 37°47' W 122°23'2 3.4
2018-Jun-24 02:00N 37°47' W 122°21'3 6.5
2018-Jun-24 01:30N 37°48' W 122°17'0 0.7
2018-Jun-24 01:00N 37°47' W 122°17'0 0.0
2018-Jun-24 00:30N 37°47' W 122°17'0 0.0
2018-Jun-23 17:57N 37°47' W 122°17'0 0.0
2018-Jun-23 05:48N 37°47' W 122°17'0 1.2
2018-Jun-23 05:31N 37°48' W 122°17'3 5.9
2018-Jun-23 05:00N 37°48' W 122°21'3 5.8
2018-Jun-23 04:30N 37°49' W 122°24'3 6.9
2018-Jun-23 04:00N 37°49' W 122°28'3 6.6
2018-Jun-23 03:30N 37°49' W 122°24'4 7.3
2018-Jun-23 03:00N 37°48' W 122°20'3 5.2
2018-Jun-23 02:30N 37°47' W 122°17'0 0.0
2018-Jun-23 02:00N 37°47' W 122°17'0 0.0
2018-Jun-23 01:30N 37°47' W 122°17'0 0.0
2018-Jun-22 17:35N 37°47' W 122°17'0 0.0
2018-Jun-22 17:30N 37°47' W 122°17'0 0.0
2018-Jun-22 17:00N 37°47' W 122°17'0 0.0
2018-Jun-22 16:30N 37°47' W 122°17'0 0.0
2018-Jun-22 16:00N 37°47' W 122°17'0 0.0
2018-Jun-22 15:30N 37°47' W 122°17'0 0.0
2018-Jun-21 22:57N 37°47' W 122°17'0 0.1
2018-Jun-21 22:30N 37°48' W 122°17'4 8.3
2018-Jun-21 22:00N 37°47' W 122°22'1 2.3
2018-Jun-21 21:30N 37°47' W 122°23'2 5.1
2018-Jun-21 21:00N 37°49' W 122°21'3 6.4
2018-Jun-21 20:30N 37°50' W 122°25'1 2.3
2018-Jun-21 20:00N 37°49' W 122°25'2 3.2
2018-Jun-21 19:30N 37°48' W 122°23'1 1.9
2018-Jun-21 19:00N 37°47' W 122°23'1 2.1
2018-Jun-21 18:30N 37°47' W 122°22'4 8.4
2018-Jun-21 18:00N 37°48' W 122°17'0 0.1
2018-Jun-21 17:30N 37°47' W 122°17'0 0.0
2018-Jun-21 16:54N 37°47' W 122°17'0 0.0
2018-Jun-21 16:31N 37°47' W 122°17'0 0.0
2018-Jun-21 16:01N 37°47' W 122°17'  
2018-Jun-17 05:57N 37°47' W 122°17'3 6.3
2018-Jun-17 05:31N 37°48' W 122°20'3 5.1
2018-Jun-17 04:59N 37°47' W 122°23'1 1.7
2018-Jun-17 04:30N 37°48' W 122°23'2 3.7
2018-Jun-17 04:00N 37°49' W 122°21'2 4.8
2018-Jun-17 03:30N 37°47' W 122°23'1 2.7
2018-Jun-17 03:00N 37°48' W 122°23'1 2.5
2018-Jun-17 02:30N 37°49' W 122°25'3 5.1
2018-Jun-17 02:00N 37°47' W 122°23'0 0.4
2018-Jun-17 01:30N 37°47' W 122°23'0 0.0
2018-Jun-17 01:00N 37°47' W 122°23'0 0.0
2018-Jun-17 00:30N 37°47' W 122°23'3 6.9
2018-Jun-17 00:00N 37°48' W 122°19'2 3.6
2018-Jun-16 23:30N 37°47' W 122°17'0 0.0
2018-Jun-16 17:34N 37°47' W 122°17'0 0.0
2018-Jun-16 17:30N 37°47' W 122°17'0 0.0
2018-Jun-16 17:00N 37°47' W 122°17'0 0.0
2018-Jun-16 07:02N 37°47' W 122°17'0 0.0
2018-Jun-16 07:00N 37°47' W 122°17'0 0.9
2018-Jun-16 06:31N 37°48' W 122°17'3 5.9
2018-Jun-16 06:00N 37°48' W 122°21'3 5.7
2018-Jun-16 05:30N 37°49' W 122°24'3 6.3
2018-Jun-16 05:00N 37°49' W 122°28'2 4.3
2018-Jun-16 04:30N 37°49' W 122°25'3 6.2
2018-Jun-16 04:00N 37°48' W 122°22'4 7.1
2018-Jun-16 03:30N 37°48' W 122°18'1 1.4
2018-Jun-16 03:00N 37°47' W 122°17'0 0.0
2018-Jun-16 02:30N 37°47' W 122°17'0 0.0
2018-Jun-16 00:02N 37°47' W 122°17'0 0.2
2018-Jun-16 00:00N 37°47' W 122°17'0 0.4
2018-Jun-15 23:29N 37°48' W 122°17'2 4.3
2018-Jun-15 23:00N 37°47' W 122°15'1 1.5
2018-Jun-15 22:30N 37°47' W 122°15'1 1.6
2018-Jun-15 22:00N 37°47' W 122°16'2 4.9
2018-Jun-15 21:30N 37°48' W 122°19'2 3.7
2018-Jun-15 21:01N 37°48' W 122°17'0 0.5
2018-Jun-15 20:30N 37°48' W 122°17'0 0.1
2018-Jun-15 18:26N 37°47' W 122°17'0 0.0
2018-Jun-15 18:00N 37°47' W 122°17'0 0.0
2018-Jun-15 17:30N 37°47' W 122°17'0 0.0
2018-Jun-15 05:49N 37°47' W 122°17'0 1.4
2018-Jun-15 05:31N 37°47' W 122°16'3 5.7
2018-Jun-15 05:00N 37°48' W 122°20'3 6.6
2018-Jun-15 04:31N 37°49' W 122°24'1 1.3
2018-Jun-15 04:01N 37°49' W 122°24'  

Dump ship's entire track history